sensor_id;sensor_type;location;lat;lon;timestamp;temperature;humidity
31733;DHT22;18312;51.486;7.144;2022-11-20T00:01:39;-2.80;99.90
31733;DHT22;18312;51.486;7.144;2022-11-20T00:04:09;-2.70;99.90
31733;DHT22;18312;51.486;7.144;2022-11-20T00:06:37;-2.70;99.90
31733;DHT22;18312;51.486;7.144;2022-11-20T00:09:10;-2.60;99.90
31733;DHT22;18312;51.486;7.144;2022-11-20T00:11:41;-2.60;99.90
31733;DHT22;18312;51.486;7.144;2022-11-20T00:14:11;-2.50;99.90
31733;DHT22;18312;51.486;7.144;2022-11-20T00:16:38;-2.50;99.90
31733;DHT22;18312;51.486;7.144;2022-11-20T00:19:05;-2.30;99.90
31733;DHT22;18312;51.486;7.144;2022-11-20T00:21:33;-2.30;99.90
31733;DHT22;18312;51.486;7.144;2022-11-20T00:24:00;-2.30;99.90
31733;DHT22;18312;51.486;7.144;2022-11-20T00:26:40;-2.30;99.90
31733;DHT22;18312;51.486;7.144;2022-11-20T00:29:09;-2.40;99.90
31733;DHT22;18312;51.486;7.144;2022-11-20T00:31:36;-2.30;99.90
31733;DHT22;18312;51.486;7.144;2022-11-20T00:34:03;-2.40;99.90
31733;DHT22;18312;51.486;7.144;2022-11-20T00:36:35;-2.40;99.90
31733;DHT22;18312;51.486;7.144;2022-11-20T00:39:15;-2.70;99.90
31733;DHT22;18312;51.486;7.144;2022-11-20T00:42:01;-2.80;99.90
31733;DHT22;18312;51.486;7.144;2022-11-20T00:44:34;-3.00;99.90
31733;DHT22;18312;51.486;7.144;2022-11-20T00:47:14;-3.00;99.90
31733;DHT22;18312;51.486;7.144;2022-11-20T00:49:53;-3.00;99.90
31733;DHT22;18312;51.486;7.144;2022-11-20T00:52:28;-3.10;99.90
31733;DHT22;18312;51.486;7.144;2022-11-20T00:55:32;-3.10;99.90
31733;DHT22;18312;51.486;7.144;2022-11-20T00:58:19;-3.10;99.90
31733;DHT22;18312;51.486;7.144;2022-11-20T01:01:11;-3.30;99.90
31733;DHT22;18312;51.486;7.144;2022-11-20T01:04:09;-3.30;99.90
31733;DHT22;18312;51.486;7.144;2022-11-20T01:06:53;-3.40;99.90
31733;DHT22;18312;51.486;7.144;2022-11-20T01:09:29;-3.30;99.90
31733;DHT22;18312;51.486;7.144;2022-11-20T01:15:09;-3.60;99.90
31733;DHT22;18312;51.486;7.144;2022-11-20T01:17:54;-3.60;99.90
31733;DHT22;18312;51.486;7.144;2022-11-20T01:20:42;-3.70;99.90
31733;DHT22;18312;51.486;7.144;2022-11-20T01:23:22;-3.60;99.90
31733;DHT22;18312;51.486;7.144;2022-11-20T01:26:07;-3.60;99.90
31733;DHT22;18312;51.486;7.144;2022-11-20T01:28:49;-3.50;99.90
31733;DHT22;18312;51.486;7.144;2022-11-20T01:31:28;-3.40;99.90
31733;DHT22;18312;51.486;7.144;2022-11-20T01:34:13;-3.50;99.90
31733;DHT22;18312;51.486;7.144;2022-11-20T01:36:44;-3.50;99.90
31733;DHT22;18312;51.486;7.144;2022-11-20T01:39:16;-3.50;99.90
31733;DHT22;18312;51.486;7.144;2022-11-20T01:41:52;-3.40;99.90
31733;DHT22;18312;51.486;7.144;2022-11-20T01:44:52;-3.50;99.90
31733;DHT22;18312;51.486;7.144;2022-11-20T01:47:31;-3.60;99.90
31733;DHT22;18312;51.486;7.144;2022-11-20T01:50:11;-3.60;99.90
31733;DHT22;18312;51.486;7.144;2022-11-20T01:52:45;-3.50;99.90
31733;DHT22;18312;51.486;7.144;2022-11-20T01:55:19;-3.70;99.90
31733;DHT22;18312;51.486;7.144;2022-11-20T01:57:58;-3.70;99.90
31733;DHT22;18312;51.486;7.144;2022-11-20T02:00:25;-3.80;99.90
31733;DHT22;18312;51.486;7.144;2022-11-20T02:02:58;-4.00;99.90
31733;DHT22;18312;51.486;7.144;2022-11-20T02:05:36;-4.00;99.90
31733;DHT22;18312;51.486;7.144;2022-11-20T02:08:15;-3.90;99.90
31733;DHT22;18312;51.486;7.144;2022-11-20T02:11:14;-3.90;99.90
31733;DHT22;18312;51.486;7.144;2022-11-20T02:13:53;-4.00;99.90
31733;DHT22;18312;51.486;7.144;2022-11-20T02:16:26;-3.90;99.90
31733;DHT22;18312;51.486;7.144;2022-11-20T02:19:01;-3.80;99.90
31733;DHT22;18312;51.486;7.144;2022-11-20T02:21:58;-3.70;99.90
31733;DHT22;18312;51.486;7.144;2022-11-20T02:24:29;-3.70;99.90
31733;DHT22;18312;51.486;7.144;2022-11-20T02:27:07;-3.70;99.90
31733;DHT22;18312;51.486;7.144;2022-11-20T02:29:42;-3.80;99.90
31733;DHT22;18312;51.486;7.144;2022-11-20T02:32:24;-3.70;99.90
31733;DHT22;18312;51.486;7.144;2022-11-20T02:34:55;-3.70;99.90
31733;DHT22;18312;51.486;7.144;2022-11-20T02:37:32;-3.70;99.90
31733;DHT22;18312;51.486;7.144;2022-11-20T02:40:11;-3.60;99.90
31733;DHT22;18312;51.486;7.144;2022-11-20T02:46:07;-3.30;99.90
31733;DHT22;18312;51.486;7.144;2022-11-20T02:48:36;-3.30;99.90
31733;DHT22;18312;51.486;7.144;2022-11-20T02:51:04;-3.30;99.90
31733;DHT22;18312;51.486;7.144;2022-11-20T02:53:35;-3.20;99.90
31733;DHT22;18312;51.486;7.144;2022-11-20T02:56:13;-3.30;99.90
31733;DHT22;18312;51.486;7.144;2022-11-20T02:58:45;-3.40;99.90
31733;DHT22;18312;51.486;7.144;2022-11-20T03:01:12;-3.40;99.90
31733;DHT22;18312;51.486;7.144;2022-11-20T03:03:42;-3.50;99.90
31733;DHT22;18312;51.486;7.144;2022-11-20T03:06:20;-3.50;99.90
31733;DHT22;18312;51.486;7.144;2022-11-20T03:08:48;-3.40;99.90
31733;DHT22;18312;51.486;7.144;2022-11-20T03:11:16;-3.20;99.90
31733;DHT22;18312;51.486;7.144;2022-11-20T03:13:48;-3.10;99.90
31733;DHT22;18312;51.486;7.144;2022-11-20T03:16:18;-3.10;99.90
31733;DHT22;18312;51.486;7.144;2022-11-20T03:18:48;-3.00;99.90
31733;DHT22;18312;51.486;7.144;2022-11-20T03:21:20;-2.80;99.90
31733;DHT22;18312;51.486;7.144;2022-11-20T03:23:50;-2.70;99.90
31733;DHT22;18312;51.486;7.144;2022-11-20T03:26:20;-2.50;99.90
31733;DHT22;18312;51.486;7.144;2022-11-20T03:28:49;-2.50;99.90
31733;DHT22;18312;51.486;7.144;2022-11-20T03:31:21;-2.40;99.90
31733;DHT22;18312;51.486;7.144;2022-11-20T03:33:49;-2.40;99.90
31733;DHT22;18312;51.486;7.144;2022-11-20T03:36:18;-2.50;99.90
31733;DHT22;18312;51.486;7.144;2022-11-20T03:38:46;-2.30;99.90
31733;DHT22;18312;51.486;7.144;2022-11-20T03:41:15;-2.30;99.90
31733;DHT22;18312;51.486;7.144;2022-11-20T03:43:48;-2.20;99.90
31733;DHT22;18312;51.486;7.144;2022-11-20T03:46:16;-2.20;99.90
31733;DHT22;18312;51.486;7.144;2022-11-20T03:48:45;-2.10;99.90
31733;DHT22;18312;51.486;7.144;2022-11-20T03:51:16;-2.10;99.90
31733;DHT22;18312;51.486;7.144;2022-11-20T03:53:44;-2.10;99.90
31733;DHT22;18312;51.486;7.144;2022-11-20T03:56:14;-2.10;99.90
31733;DHT22;18312;51.486;7.144;2022-11-20T03:58:42;-1.90;99.90
31733;DHT22;18312;51.486;7.144;2022-11-20T04:01:14;-1.90;99.90
31733;DHT22;18312;51.486;7.144;2022-11-20T04:03:43;-1.90;99.90
31733;DHT22;18312;51.486;7.144;2022-11-20T04:06:12;-1.90;99.90
31733;DHT22;18312;51.486;7.144;2022-11-20T04:08:40;-1.90;99.90
31733;DHT22;18312;51.486;7.144;2022-11-20T04:11:09;-1.90;99.90
31733;DHT22;18312;51.486;7.144;2022-11-20T04:13:39;-1.90;99.90
31733;DHT22;18312;51.486;7.144;2022-11-20T04:16:08;-1.90;99.90
31733;DHT22;18312;51.486;7.144;2022-11-20T04:18:37;-1.90;99.90
31733;DHT22;18312;51.486;7.144;2022-11-20T04:21:09;-1.90;99.90
31733;DHT22;18312;51.486;7.144;2022-11-20T04:23:38;-2.00;99.90
31733;DHT22;18312;51.486;7.144;2022-11-20T04:26:09;-2.00;99.90
31733;DHT22;18312;51.486;7.144;2022-11-20T04:28:40;-2.00;99.90
31733;DHT22;18312;51.486;7.144;2022-11-20T04:31:09;-2.00;99.90
31733;DHT22;18312;51.486;7.144;2022-11-20T04:33:39;-1.90;99.90
31733;DHT22;18312;51.486;7.144;2022-11-20T04:36:10;-1.90;99.90
31733;DHT22;18312;51.486;7.144;2022-11-20T04:38:40;-1.90;99.90
31733;DHT22;18312;51.486;7.144;2022-11-20T04:41:15;-1.90;99.90
31733;DHT22;18312;51.486;7.144;2022-11-20T04:43:47;-1.90;99.90
31733;DHT22;18312;51.486;7.144;2022-11-20T04:46:15;-1.80;99.90
31733;DHT22;18312;51.486;7.144;2022-11-20T04:48:44;-1.90;99.90
31733;DHT22;18312;51.486;7.144;2022-11-20T04:51:12;-1.90;99.90
31733;DHT22;18312;51.486;7.144;2022-11-20T04:53:41;-1.80;99.90
31733;DHT22;18312;51.486;7.144;2022-11-20T04:56:10;-1.80;99.90
31733;DHT22;18312;51.486;7.144;2022-11-20T04:58:46;-1.70;99.90
31733;DHT22;18312;51.486;7.144;2022-11-20T05:01:15;-1.60;99.90
31733;DHT22;18312;51.486;7.144;2022-11-20T05:03:45;-1.70;99.90
31733;DHT22;18312;51.486;7.144;2022-11-20T05:06:15;-1.70;99.90
31733;DHT22;18312;51.486;7.144;2022-11-20T05:08:42;-1.80;99.90
31733;DHT22;18312;51.486;7.144;2022-11-20T05:11:13;-1.70;99.90
31733;DHT22;18312;51.486;7.144;2022-11-20T05:13:50;-1.80;99.90
31733;DHT22;18312;51.486;7.144;2022-11-20T05:16:19;-1.90;99.90
31733;DHT22;18312;51.486;7.144;2022-11-20T05:18:50;-1.90;99.90
31733;DHT22;18312;51.486;7.144;2022-11-20T05:21:17;-1.90;99.90
31733;DHT22;18312;51.486;7.144;2022-11-20T05:23:47;-1.80;99.90
31733;DHT22;18312;51.486;7.144;2022-11-20T05:26:19;-1.70;99.90
31733;DHT22;18312;51.486;7.144;2022-11-20T05:28:51;-1.80;99.90
31733;DHT22;18312;51.486;7.144;2022-11-20T05:31:18;-1.80;99.90
31733;DHT22;18312;51.486;7.144;2022-11-20T05:34:06;-1.70;99.90
31733;DHT22;18312;51.486;7.144;2022-11-20T05:36:37;-1.60;99.90
31733;DHT22;18312;51.486;7.144;2022-11-20T05:39:05;-1.70;99.90
31733;DHT22;18312;51.486;7.144;2022-11-20T05:41:33;-1.70;99.90
31733;DHT22;18312;51.486;7.144;2022-11-20T05:44:00;-1.70;99.90
31733;DHT22;18312;51.486;7.144;2022-11-20T05:46:29;-1.50;99.90
31733;DHT22;18312;51.486;7.144;2022-11-20T05:48:58;-1.50;99.90
31733;DHT22;18312;51.486;7.144;2022-11-20T05:51:31;-1.50;99.90
31733;DHT22;18312;51.486;7.144;2022-11-20T05:53:58;-1.60;99.90
31733;DHT22;18312;51.486;7.144;2022-11-20T05:56:25;-1.50;99.90
31733;DHT22;18312;51.486;7.144;2022-11-20T05:58:53;-1.50;99.90
31733;DHT22;18312;51.486;7.144;2022-11-20T06:01:22;-1.50;99.90
31733;DHT22;18312;51.486;7.144;2022-11-20T06:03:57;-1.40;99.90
31733;DHT22;18312;51.486;7.144;2022-11-20T06:06:25;-1.40;99.90
31733;DHT22;18312;51.486;7.144;2022-11-20T06:08:54;-1.40;99.90
31733;DHT22;18312;51.486;7.144;2022-11-20T06:11:25;-1.40;99.90
31733;DHT22;18312;51.486;7.144;2022-11-20T06:13:53;-1.40;99.90
31733;DHT22;18312;51.486;7.144;2022-11-20T06:16:20;-1.40;99.90
31733;DHT22;18312;51.486;7.144;2022-11-20T06:18:47;-1.40;99.90
31733;DHT22;18312;51.486;7.144;2022-11-20T06:21:20;-1.40;99.90
31733;DHT22;18312;51.486;7.144;2022-11-20T06:23:49;-1.40;99.90
31733;DHT22;18312;51.486;7.144;2022-11-20T06:26:17;-1.30;99.90
31733;DHT22;18312;51.486;7.144;2022-11-20T06:31:51;-1.50;99.90
31733;DHT22;18312;51.486;7.144;2022-11-20T06:34:18;-1.50;99.90
31733;DHT22;18312;51.486;7.144;2022-11-20T06:36:47;-1.60;99.90
31733;DHT22;18312;51.486;7.144;2022-11-20T06:39:14;-1.50;99.90
31733;DHT22;18312;51.486;7.144;2022-11-20T06:41:41;-1.60;99.90
31733;DHT22;18312;51.486;7.144;2022-11-20T06:44:09;-1.60;99.90
31733;DHT22;18312;51.486;7.144;2022-11-20T06:46:36;-1.60;99.90
31733;DHT22;18312;51.486;7.144;2022-11-20T06:49:04;-1.60;99.90
31733;DHT22;18312;51.486;7.144;2022-11-20T06:51:31;-1.70;99.90
31733;DHT22;18312;51.486;7.144;2022-11-20T06:54:00;-1.70;99.90
31733;DHT22;18312;51.486;7.144;2022-11-20T06:56:27;-1.70;99.90
31733;DHT22;18312;51.486;7.144;2022-11-20T06:58:57;-1.70;99.90
31733;DHT22;18312;51.486;7.144;2022-11-20T07:01:24;-1.70;99.90
31733;DHT22;18312;51.486;7.144;2022-11-20T07:03:51;-1.70;99.90
31733;DHT22;18312;51.486;7.144;2022-11-20T07:06:18;-1.60;99.90
31733;DHT22;18312;51.486;7.144;2022-11-20T07:08:45;-1.70;99.90
31733;DHT22;18312;51.486;7.144;2022-11-20T07:11:14;-1.70;99.90
31733;DHT22;18312;51.486;7.144;2022-11-20T07:13:41;-1.90;99.90
31733;DHT22;18312;51.486;7.144;2022-11-20T07:16:08;-2.00;99.90
31733;DHT22;18312;51.486;7.144;2022-11-20T07:18:35;-2.10;99.90
31733;DHT22;18312;51.486;7.144;2022-11-20T07:21:03;-2.10;99.90
31733;DHT22;18312;51.486;7.144;2022-11-20T07:23:31;-2.10;99.90
31733;DHT22;18312;51.486;7.144;2022-11-20T07:25:58;-2.00;99.90
31733;DHT22;18312;51.486;7.144;2022-11-20T07:28:30;-2.20;99.90
31733;DHT22;18312;51.486;7.144;2022-11-20T07:30:57;-2.30;99.90
31733;DHT22;18312;51.486;7.144;2022-11-20T07:33:24;-2.30;99.90
31733;DHT22;18312;51.486;7.144;2022-11-20T07:35:51;-2.20;99.90
31733;DHT22;18312;51.486;7.144;2022-11-20T07:38:18;-2.10;99.90
31733;DHT22;18312;51.486;7.144;2022-11-20T07:40:45;-2.00;99.90
31733;DHT22;18312;51.486;7.144;2022-11-20T07:43:12;-2.00;99.90
31733;DHT22;18312;51.486;7.144;2022-11-20T07:45:40;-2.10;99.90
31733;DHT22;18312;51.486;7.144;2022-11-20T07:48:07;-2.10;99.90
31733;DHT22;18312;51.486;7.144;2022-11-20T07:50:34;-2.10;99.90
31733;DHT22;18312;51.486;7.144;2022-11-20T07:53:02;-2.20;99.90
31733;DHT22;18312;51.486;7.144;2022-11-20T07:55:30;-2.20;99.90
31733;DHT22;18312;51.486;7.144;2022-11-20T07:57:57;-2.20;99.90
31733;DHT22;18312;51.486;7.144;2022-11-20T08:00:27;-2.00;99.90
31733;DHT22;18312;51.486;7.144;2022-11-20T08:02:55;-1.90;99.90
31733;DHT22;18312;51.486;7.144;2022-11-20T08:05:22;-1.70;99.90
31733;DHT22;18312;51.486;7.144;2022-11-20T08:07:49;-1.60;99.90
31733;DHT22;18312;51.486;7.144;2022-11-20T08:10:16;-1.50;99.90
31733;DHT22;18312;51.486;7.144;2022-11-20T08:12:46;-1.50;99.90
31733;DHT22;18312;51.486;7.144;2022-11-20T08:15:31;-1.40;99.90
31733;DHT22;18312;51.486;7.144;2022-11-20T08:18:04;-1.30;99.90
31733;DHT22;18312;51.486;7.144;2022-11-20T08:20:32;-1.30;99.90
31733;DHT22;18312;51.486;7.144;2022-11-20T08:23:00;-1.30;99.90
31733;DHT22;18312;51.486;7.144;2022-11-20T08:25:28;-1.20;99.90
31733;DHT22;18312;51.486;7.144;2022-11-20T08:27:57;-1.20;99.90
31733;DHT22;18312;51.486;7.144;2022-11-20T08:30:25;-1.20;99.90
31733;DHT22;18312;51.486;7.144;2022-11-20T08:32:53;-1.30;99.90
31733;DHT22;18312;51.486;7.144;2022-11-20T08:35:32;-1.30;99.90
31733;DHT22;18312;51.486;7.144;2022-11-20T08:38:00;-1.20;99.90
31733;DHT22;18312;51.486;7.144;2022-11-20T08:40:27;-1.10;99.90
31733;DHT22;18312;51.486;7.144;2022-11-20T08:42:54;-1.10;99.90
31733;DHT22;18312;51.486;7.144;2022-11-20T08:45:21;-0.90;99.90
31733;DHT22;18312;51.486;7.144;2022-11-20T08:47:48;-0.80;99.90
31733;DHT22;18312;51.486;7.144;2022-11-20T08:50:16;-0.60;99.90
31733;DHT22;18312;51.486;7.144;2022-11-20T08:52:45;-0.60;99.90
31733;DHT22;18312;51.486;7.144;2022-11-20T08:55:12;-0.70;99.90
31733;DHT22;18312;51.486;7.144;2022-11-20T08:57:39;-0.60;99.90
31733;DHT22;18312;51.486;7.144;2022-11-20T09:00:07;-0.60;99.90
31733;DHT22;18312;51.486;7.144;2022-11-20T09:02:36;-0.50;99.90
31733;DHT22;18312;51.486;7.144;2022-11-20T09:05:07;-0.50;99.90
31733;DHT22;18312;51.486;7.144;2022-11-20T09:12:57;-0.30;99.90
31733;DHT22;18312;51.486;7.144;2022-11-20T10:12:09;3.60;99.90
31733;DHT22;18312;51.486;7.144;2022-11-20T10:15:03;3.80;99.90
31733;DHT22;18312;51.486;7.144;2022-11-20T10:17:58;3.90;99.90
31733;DHT22;18312;51.486;7.144;2022-11-20T10:20:47;4.00;99.90
31733;DHT22;18312;51.486;7.144;2022-11-20T10:23:45;4.10;99.90
31733;DHT22;18312;51.486;7.144;2022-11-20T10:26:44;4.10;99.90
31733;DHT22;18312;51.486;7.144;2022-11-20T10:29:37;4.30;99.90
31733;DHT22;18312;51.486;7.144;2022-11-20T10:32:35;4.40;99.90
31733;DHT22;18312;51.486;7.144;2022-11-20T10:36:38;4.60;99.90
31733;DHT22;18312;51.486;7.144;2022-11-20T10:39:33;4.70;99.90
31733;DHT22;18312;51.486;7.144;2022-11-20T10:42:59;4.60;99.90
31733;DHT22;18312;51.486;7.144;2022-11-20T10:57:08;4.50;99.90
31733;DHT22;18312;51.486;7.144;2022-11-20T11:07:41;4.70;99.90
31733;DHT22;18312;51.486;7.144;2022-11-20T11:11:07;4.70;99.90
31733;DHT22;18312;51.486;7.144;2022-11-20T11:14:41;4.90;99.90
31733;DHT22;18312;51.486;7.144;2022-11-20T11:21:37;5.00;99.90
31733;DHT22;18312;51.486;7.144;2022-11-20T11:25:34;5.00;99.90
31733;DHT22;18312;51.486;7.144;2022-11-20T11:42:48;5.40;99.90
31733;DHT22;18312;51.486;7.144;2022-11-20T11:46:22;5.50;99.90
31733;DHT22;18312;51.486;7.144;2022-11-20T11:49:15;5.60;99.90
31733;DHT22;18312;51.486;7.144;2022-11-20T11:52:15;5.80;99.90
31733;DHT22;18312;51.486;7.144;2022-11-20T11:54:55;6.00;99.90
31733;DHT22;18312;51.486;7.144;2022-11-20T11:57:29;6.00;99.90
31733;DHT22;18312;51.486;7.144;2022-11-20T12:00:06;6.00;99.90
31733;DHT22;18312;51.486;7.144;2022-11-20T12:02:36;6.00;99.90
31733;DHT22;18312;51.486;7.144;2022-11-20T12:05:13;6.00;99.90
31733;DHT22;18312;51.486;7.144;2022-11-20T12:07:46;6.00;99.90
31733;DHT22;18312;51.486;7.144;2022-11-20T12:10:21;6.00;99.90
31733;DHT22;18312;51.486;7.144;2022-11-20T12:12:52;5.90;99.90
31733;DHT22;18312;51.486;7.144;2022-11-20T12:15:28;5.70;99.90
31733;DHT22;18312;51.486;7.144;2022-11-20T12:17:56;5.50;99.90
31733;DHT22;18312;51.486;7.144;2022-11-20T12:20:26;5.50;99.90
31733;DHT22;18312;51.486;7.144;2022-11-20T12:22:59;5.50;99.90
31733;DHT22;18312;51.486;7.144;2022-11-20T12:25:30;5.50;99.90
31733;DHT22;18312;51.486;7.144;2022-11-20T12:28:21;5.50;99.90
31733;DHT22;18312;51.486;7.144;2022-11-20T12:31:13;5.50;99.90
31733;DHT22;18312;51.486;7.144;2022-11-20T12:34:04;5.40;99.90
31733;DHT22;18312;51.486;7.144;2022-11-20T12:36:40;5.30;99.90
31733;DHT22;18312;51.486;7.144;2022-11-20T12:39:30;5.20;99.90
31733;DHT22;18312;51.486;7.144;2022-11-20T12:42:19;5.20;99.90
31733;DHT22;18312;51.486;7.144;2022-11-20T12:45:38;5.20;99.90
31733;DHT22;18312;51.486;7.144;2022-11-20T12:48:28;5.20;99.90
31733;DHT22;18312;51.486;7.144;2022-11-20T12:51:14;5.10;99.90
31733;DHT22;18312;51.486;7.144;2022-11-20T12:53:54;5.10;99.90
31733;DHT22;18312;51.486;7.144;2022-11-20T12:56:35;5.10;99.90
31733;DHT22;18312;51.486;7.144;2022-11-20T12:59:19;5.00;99.90
31733;DHT22;18312;51.486;7.144;2022-11-20T13:01:51;5.00;99.90
31733;DHT22;18312;51.486;7.144;2022-11-20T13:04:39;5.00;99.90
31733;DHT22;18312;51.486;7.144;2022-11-20T13:07:12;5.00;99.90
31733;DHT22;18312;51.486;7.144;2022-11-20T13:09:44;5.00;99.90
31733;DHT22;18312;51.486;7.144;2022-11-20T13:12:24;4.80;99.90
31733;DHT22;18312;51.486;7.144;2022-11-20T13:14:55;4.90;99.90
31733;DHT22;18312;51.486;7.144;2022-11-20T13:17:30;4.90;99.90
31733;DHT22;18312;51.486;7.144;2022-11-20T13:20:02;4.90;99.90
31733;DHT22;18312;51.486;7.144;2022-11-20T13:22:44;4.90;99.90
31733;DHT22;18312;51.486;7.144;2022-11-20T13:25:22;5.00;99.90
31733;DHT22;18312;51.486;7.144;2022-11-20T13:27:50;5.00;99.90
31733;DHT22;18312;51.486;7.144;2022-11-20T13:30:19;5.00;99.90
31733;DHT22;18312;51.486;7.144;2022-11-20T13:32:52;5.00;99.90
31733;DHT22;18312;51.486;7.144;2022-11-20T13:35:29;5.10;99.90
31733;DHT22;18312;51.486;7.144;2022-11-20T13:38:02;5.00;99.90
31733;DHT22;18312;51.486;7.144;2022-11-20T13:40:29;5.00;99.90
31733;DHT22;18312;51.486;7.144;2022-11-20T13:43:02;5.00;99.90
31733;DHT22;18312;51.486;7.144;2022-11-20T13:45:31;4.90;99.90
31733;DHT22;18312;51.486;7.144;2022-11-20T13:48:02;5.00;99.90
31733;DHT22;18312;51.486;7.144;2022-11-20T13:50:53;4.90;99.90
31733;DHT22;18312;51.486;7.144;2022-11-20T13:53:34;4.90;99.90
31733;DHT22;18312;51.486;7.144;2022-11-20T13:56:10;4.90;99.90
31733;DHT22;18312;51.486;7.144;2022-11-20T13:58:49;4.80;99.90
31733;DHT22;18312;51.486;7.144;2022-11-20T14:01:21;4.80;99.90
31733;DHT22;18312;51.486;7.144;2022-11-20T14:03:50;4.80;99.90
31733;DHT22;18312;51.486;7.144;2022-11-20T14:06:27;4.70;99.90
31733;DHT22;18312;51.486;7.144;2022-11-20T14:08:54;4.70;99.90
31733;DHT22;18312;51.486;7.144;2022-11-20T14:11:23;4.70;99.90
31733;DHT22;18312;51.486;7.144;2022-11-20T14:14:01;4.70;99.90
31733;DHT22;18312;51.486;7.144;2022-11-20T14:16:32;4.70;99.90
31733;DHT22;18312;51.486;7.144;2022-11-20T14:19:25;4.70;99.90
31733;DHT22;18312;51.486;7.144;2022-11-20T14:22:08;4.70;99.90
31733;DHT22;18312;51.486;7.144;2022-11-20T14:24:35;4.60;99.90
31733;DHT22;18312;51.486;7.144;2022-11-20T14:27:02;4.60;99.90
31733;DHT22;18312;51.486;7.144;2022-11-20T14:29:34;4.60;99.90
31733;DHT22;18312;51.486;7.144;2022-11-20T14:32:02;4.60;99.90
31733;DHT22;18312;51.486;7.144;2022-11-20T14:34:31;4.60;99.90
31733;DHT22;18312;51.486;7.144;2022-11-20T14:37:02;4.60;99.90
31733;DHT22;18312;51.486;7.144;2022-11-20T14:39:32;4.60;99.90
31733;DHT22;18312;51.486;7.144;2022-11-20T14:42:00;4.60;99.90
31733;DHT22;18312;51.486;7.144;2022-11-20T14:44:30;4.60;99.90
31733;DHT22;18312;51.486;7.144;2022-11-20T14:46:59;4.50;99.90
31733;DHT22;18312;51.486;7.144;2022-11-20T14:49:30;4.40;99.90
31733;DHT22;18312;51.486;7.144;2022-11-20T14:52:12;4.30;99.90
31733;DHT22;18312;51.486;7.144;2022-11-20T14:54:44;4.30;99.90
31733;DHT22;18312;51.486;7.144;2022-11-20T14:57:22;4.20;99.90
31733;DHT22;18312;51.486;7.144;2022-11-20T14:59:49;4.20;99.90
31733;DHT22;18312;51.486;7.144;2022-11-20T15:02:16;4.20;99.90
31733;DHT22;18312;51.486;7.144;2022-11-20T15:04:47;4.20;99.90
31733;DHT22;18312;51.486;7.144;2022-11-20T15:07:25;4.20;99.90
31733;DHT22;18312;51.486;7.144;2022-11-20T15:10:01;4.20;99.90
31733;DHT22;18312;51.486;7.144;2022-11-20T15:12:30;4.20;99.90
31733;DHT22;18312;51.486;7.144;2022-11-20T15:15:00;4.10;99.90
31733;DHT22;18312;51.486;7.144;2022-11-20T15:17:32;4.10;99.90
31733;DHT22;18312;51.486;7.144;2022-11-20T15:20:02;4.00;99.90
31733;DHT22;18312;51.486;7.144;2022-11-20T15:22:33;4.00;99.90
31733;DHT22;18312;51.486;7.144;2022-11-20T15:25:01;4.00;99.90
31733;DHT22;18312;51.486;7.144;2022-11-20T15:27:29;4.00;99.90
31733;DHT22;18312;51.486;7.144;2022-11-20T15:30:08;3.90;99.90
31733;DHT22;18312;51.486;7.144;2022-11-20T15:32:56;3.80;99.90
31733;DHT22;18312;51.486;7.144;2022-11-20T15:35:23;3.80;99.90
31733;DHT22;18312;51.486;7.144;2022-11-20T15:37:51;3.80;99.90
31733;DHT22;18312;51.486;7.144;2022-11-20T15:40:19;3.80;99.90
31733;DHT22;18312;51.486;7.144;2022-11-20T15:42:46;3.70;99.90
31733;DHT22;18312;51.486;7.144;2022-11-20T15:45:28;3.70;99.90
31733;DHT22;18312;51.486;7.144;2022-11-20T15:47:56;3.70;99.90
31733;DHT22;18312;51.486;7.144;2022-11-20T15:50:46;3.70;99.90
31733;DHT22;18312;51.486;7.144;2022-11-20T15:55:56;3.60;99.90
31733;DHT22;18312;51.486;7.144;2022-11-20T15:58:23;3.60;99.90
31733;DHT22;18312;51.486;7.144;2022-11-20T16:00:51;3.60;99.90
31733;DHT22;18312;51.486;7.144;2022-11-20T16:03:18;3.60;99.90
31733;DHT22;18312;51.486;7.144;2022-11-20T16:05:45;3.60;99.90
31733;DHT22;18312;51.486;7.144;2022-11-20T16:08:13;3.60;99.90
31733;DHT22;18312;51.486;7.144;2022-11-20T16:11:02;3.60;99.90
31733;DHT22;18312;51.486;7.144;2022-11-20T16:13:38;3.70;99.90
31733;DHT22;18312;51.486;7.144;2022-11-20T16:16:25;3.70;99.90
31733;DHT22;18312;51.486;7.144;2022-11-20T16:18:54;3.70;99.90
31733;DHT22;18312;51.486;7.144;2022-11-20T16:21:21;3.60;99.90
31733;DHT22;18312;51.486;7.144;2022-11-20T16:23:53;3.70;99.90
31733;DHT22;18312;51.486;7.144;2022-11-20T16:26:22;3.70;99.90
31733;DHT22;18312;51.486;7.144;2022-11-20T16:28:49;3.70;99.90
31733;DHT22;18312;51.486;7.144;2022-11-20T16:31:18;3.70;99.90
31733;DHT22;18312;51.486;7.144;2022-11-20T16:33:49;3.70;99.90
31733;DHT22;18312;51.486;7.144;2022-11-20T16:36:29;3.80;99.90
31733;DHT22;18312;51.486;7.144;2022-11-20T16:38:58;3.80;99.90
31733;DHT22;18312;51.486;7.144;2022-11-20T16:41:30;3.80;99.90
31733;DHT22;18312;51.486;7.144;2022-11-20T16:44:00;3.80;99.90
31733;DHT22;18312;51.486;7.144;2022-11-20T16:46:30;3.80;99.90
31733;DHT22;18312;51.486;7.144;2022-11-20T16:48:58;3.90;99.90
31733;DHT22;18312;51.486;7.144;2022-11-20T16:51:27;3.90;99.90
31733;DHT22;18312;51.486;7.144;2022-11-20T16:53:57;3.90;99.90
31733;DHT22;18312;51.486;7.144;2022-11-20T16:56:37;3.90;99.90
31733;DHT22;18312;51.486;7.144;2022-11-20T16:59:46;3.90;99.90
31733;DHT22;18312;51.486;7.144;2022-11-20T17:33:57;4.00;99.90
31733;DHT22;18312;51.486;7.144;2022-11-20T17:36:36;4.00;99.90
31733;DHT22;18312;51.486;7.144;2022-11-20T17:41:04;4.10;99.90
31733;DHT22;18312;51.486;7.144;2022-11-20T17:42:21;4.10;99.90
31733;DHT22;18312;51.486;7.144;2022-11-20T17:44:55;4.20;99.90
31733;DHT22;18312;51.486;7.144;2022-11-20T17:51:09;4.30;99.90
31733;DHT22;18312;51.486;7.144;2022-11-20T17:53:38;4.40;99.90
31733;DHT22;18312;51.486;7.144;2022-11-20T17:56:38;4.40;99.90
31733;DHT22;18312;51.486;7.144;2022-11-20T18:02:49;4.60;99.90
31733;DHT22;18312;51.486;7.144;2022-11-20T18:05:25;4.80;99.90
31733;DHT22;18312;51.486;7.144;2022-11-20T18:07:55;4.80;99.90
31733;DHT22;18312;51.486;7.144;2022-11-20T18:13:30;4.80;99.90
31733;DHT22;18312;51.486;7.144;2022-11-20T18:16:17;4.80;99.90
31733;DHT22;18312;51.486;7.144;2022-11-20T18:18:46;4.80;99.90
31733;DHT22;18312;51.486;7.144;2022-11-20T18:21:12;4.80;99.90
31733;DHT22;18312;51.486;7.144;2022-11-20T18:23:40;4.80;99.90
31733;DHT22;18312;51.486;7.144;2022-11-20T18:26:09;4.80;99.90
31733;DHT22;18312;51.486;7.144;2022-11-20T18:28:36;4.80;99.90
31733;DHT22;18312;51.486;7.144;2022-11-20T18:31:04;4.90;99.90
31733;DHT22;18312;51.486;7.144;2022-11-20T18:33:32;4.90;99.90
31733;DHT22;18312;51.486;7.144;2022-11-20T18:36:07;4.90;99.90
31733;DHT22;18312;51.486;7.144;2022-11-20T18:38:34;5.00;99.90
31733;DHT22;18312;51.486;7.144;2022-11-20T18:41:06;5.10;99.90
31733;DHT22;18312;51.486;7.144;2022-11-20T18:43:55;5.00;99.90
31733;DHT22;18312;51.486;7.144;2022-11-20T18:46:40;5.00;99.90
31733;DHT22;18312;51.486;7.144;2022-11-20T18:49:08;5.00;99.90
31733;DHT22;18312;51.486;7.144;2022-11-20T18:51:35;5.00;99.90
31733;DHT22;18312;51.486;7.144;2022-11-20T18:54:03;5.00;99.90
31733;DHT22;18312;51.486;7.144;2022-11-20T18:56:32;5.10;99.90
31733;DHT22;18312;51.486;7.144;2022-11-20T18:59:06;5.10;99.90